This is the latest recevied weather packets stored in our database for station/object IQ8VX-3. If no packets are shown the sender has not sent any weather packets the latest 10 day(s).
| Time | Temp. | Humidity | Pressure | Rain* | Wind** | Luminosity | Snow |
|---|---|---|---|---|---|---|---|
| 1777048530 | 18.33° C | 51% | 1702.9 hPa | - | - | - | - |
| 1777047330 | 18.33° C | 48% | 1703.6 hPa | - | - | - | - |
| 1777046130 | 18.89° C | 47% | 1705 hPa | - | - | - | - |
| 1777044929 | 18.89° C | 45% | 1705.3 hPa | - | - | - | - |
| 1777043729 | 19.44° C | 48% | 1706.6 hPa | - | - | - | - |
| 1777042529 | 20° C | 52% | 1707.2 hPa | - | - | - | - |
| 1777041329 | 19.44° C | 49% | 1706 hPa | - | - | - | - |
| 1777040128 | 20° C | 51% | 1707.4 hPa | - | - | - | - |
| 1777038928 | 20° C | 52% | 1708.1 hPa | - | - | - | - |
| 1777037728 | 20.56° C | 49% | 1708.9 hPa | - | - | - | - |
| 1777036527 | 19.44° C | 52% | 1706.4 hPa | - | - | - | - |
| 1777035327 | 19.44° C | 52% | 1706.1 hPa | - | - | - | - |
| 1777034127 | 20° C | 50% | 1707.3 hPa | - | - | - | - |
| 1777032926 | 19.44° C | 53% | 1706.4 hPa | - | - | - | - |
| 1777031726 | 18.89° C | 53% | 1704.4 hPa | - | - | - | - |
| 1777030526 | 18.89° C | 52% | 1704.2 hPa | - | - | - | - |
| 1777029326 | 18.89° C | 53% | 1704.2 hPa | - | - | - | - |
| 1777028125 | 18.33° C | 52% | 1703.1 hPa | - | - | - | - |
| 1777026925 | 17.78° C | 53% | 1702.2 hPa | - | - | - | - |
| 1777025725 | 18.33° C | 53% | 1703 hPa | - | - | - | - |
| 1777024524 | 17.78° C | 54% | 1701.9 hPa | - | - | - | - |
| 1777023324 | 17.78° C | 54% | 1701.4 hPa | - | - | - | - |
| 1777022124 | 17.22° C | 52% | 1700.6 hPa | - | - | - | - |
| 1777020923 | 17.78° C | 50% | 1701.5 hPa | - | - | - | - |
| 1777019723 | 21.11° C | 43% | 1710 hPa | - | - | - | - |
* Rain since midnight (hover to see other rain measurements)
** Current wind speed in m/s (hover to see current wind gust speed)